Time;durP1;ratioP1;P1;durP2;ratioP2;P2;SDS_P1;SDS_P2;PMS_P1;PMS_P2;Temp;Humidity;BMP_temperature;BMP_pressure;BME280_temperature;BME280_humidity;BME280_pressure;Samples;Min_cycle;Max_cycle;Signal;HPM_P1;HPM_P2
2023/06/19 00:00:37;;;;;;;0.00;0.00;;;;;;;20.78;63.23;98763.13;5071165;28;20059;-64
2023/06/19 00:03:04;;;;;;;0.00;0.00;;;;;;;20.80;63.12;98768.28;5076458;28;20054;-63
2023/06/19 00:05:32;;;;;;;0.00;0.00;;;;;;;20.77;63.99;98763.47;5073719;28;20046;-63
2023/06/19 00:07:59;;;;;;;0.00;0.00;;;;;;;20.18;70.35;98770.09;5076202;28;20047;-63
2023/06/19 00:10:28;;;;;;;0.10;0.00;;;;;;;20.36;66.95;98770.13;5076141;28;20574;-63
2023/06/19 00:12:56;;;;;;;0.00;0.00;;;;;;;20.39;66.39;98773.03;5095008;28;20437;-62
2023/06/19 00:15:24;;;;;;;0.00;0.00;;;;;;;20.53;65.50;98767.44;5073016;28;20098;-62
2023/06/19 00:17:51;;;;;;;0.00;0.00;;;;;;;20.45;66.32;98774.47;5081038;28;20046;-64
2023/06/19 00:20:18;;;;;;;0.00;0.00;;;;;;;20.41;66.81;98778.94;5083121;28;20037;-62
2023/06/19 00:22:51;;;;;;;0.00;0.00;;;;;;;20.37;67.18;98761.66;5074535;28;20375;-63
2023/06/19 00:25:19;;;;;;;0.00;0.00;;;;;;;20.68;64.69;98761.53;5084620;28;20064;-63
2023/06/19 00:27:48;;;;;;;0.00;0.00;;;;;;;20.85;63.39;98771.63;5072484;28;20045;-64
2023/06/19 00:30:15;;;;;;;0.00;0.00;;;;;;;20.97;63.08;98778.34;5073377;28;20133;-64
2023/06/19 00:32:50;;;;;;;0.00;0.00;;;;;;;21.00;62.93;98783.16;5063823;28;20067;-62
2023/06/19 00:35:18;;;;;;;0.00;0.00;;;;;;;20.97;62.78;98783.81;5076253;28;20080;-62
2023/06/19 00:37:46;;;;;;;0.00;0.00;;;;;;;20.64;67.47;98787.00;5073862;28;20048;-64
2023/06/19 00:40:26;;;;;;;0.00;0.00;;;;;;;20.71;64.89;98779.16;5071398;28;20123;-63
2023/06/19 00:42:55;;;;;;;0.00;0.00;;;;;;;20.82;63.72;98783.16;5072168;28;20044;-64
2023/06/19 00:45:23;;;;;;;0.00;0.00;;;;;;;20.85;63.57;98782.53;5080208;28;20040;-63
2023/06/19 00:47:51;;;;;;;0.00;0.00;;;;;;;20.82;64.03;98788.63;5074383;28;20048;-63
2023/06/19 00:50:18;;;;;;;0.00;0.00;;;;;;;20.89;63.33;98786.22;5072182;28;20127;-63
2023/06/19 00:52:45;;;;;;;0.00;0.00;;;;;;;20.98;62.89;98788.91;5076609;28;20059;-63
2023/06/19 00:55:13;;;;;;;0.00;0.00;;;;;;;21.02;62.65;98786.38;5074816;28;20048;-63
2023/06/19 00:57:41;;;;;;;0.00;0.00;;;;;;;21.09;61.98;98783.94;5074199;28;20045;-63
2023/06/19 01:00:12;;;;;;;0.00;0.00;;;;;;;21.00;62.72;98788.59;5078720;28;20413;-63
2023/06/19 01:02:40;;;;;;;0.00;0.00;;;;;;;21.02;62.86;98798.06;5082374;28;20036;-63
2023/06/19 01:05:08;;;;;;;0.00;0.00;;;;;;;20.91;63.38;98799.50;5076402;28;20662;-63
2023/06/19 01:07:40;;;;;;;0.00;0.00;;;;;;;20.88;63.58;98798.22;5076397;28;20144;-63
2023/06/19 01:10:09;;;;;;;0.00;0.00;;;;;;;20.86;63.87;98795.00;5074397;28;20050;-62
2023/06/19 01:12:38;;;;;;;0.00;0.00;;;;;;;20.86;64.07;98802.38;5072277;28;20047;-63
2023/06/19 01:15:07;;;;;;;;;;;;;;;20.78;64.79;98806.72;5075741;28;20055;-62
2023/06/19 01:17:36;;;;;;;0.00;0.00;;;;;;;20.75;65.17;98801.91;5073502;28;19928;-63
2023/06/19 01:20:10;;;;;;;0.00;0.00;;;;;;;20.71;65.43;98798.22;5075064;28;20392;-63
2023/06/19 01:22:43;;;;;;;0.00;0.00;;;;;;;20.64;65.74;98784.28;5061429;28;20044;-62
2023/06/19 01:25:13;;;;;;;0.00;0.00;;;;;;;20.56;66.69;98791.31;5068843;28;20052;-62
2023/06/19 01:27:40;;;;;;;;;;;;;;;20.56;66.46;98785.88;5073597;28;20057;-62
2023/06/19 01:30:10;;;;;;;0.00;0.00;;;;;;;20.34;67.83;98789.50;5069668;28;20282;-64
2023/06/19 01:32:40;;;;;;;0.00;0.00;;;;;;;20.26;68.60;98790.28;5076990;28;20045;-64
2023/06/19 01:35:09;;;;;;;0.00;0.00;;;;;;;20.19;68.86;98798.94;5075169;28;20490;-63
2023/06/19 01:37:37;;;;;;;0.00;0.00;;;;;;;20.21;68.70;98804.03;5074837;28;20664;-64
2023/06/19 01:40:09;;;;;;;0.00;0.00;;;;;;;20.21;68.99;98801.31;5077367;28;20047;-63
2023/06/19 01:42:37;;;;;;;0.00;0.00;;;;;;;20.16;69.14;98804.19;5073443;28;20064;-63
2023/06/19 01:45:05;;;;;;;0.00;0.00;;;;;;;20.09;69.84;98803.84;5077917;28;20056;-64
2023/06/19 01:47:32;;;;;;;0.00;0.00;;;;;;;20.12;69.53;98798.59;5075062;28;20044;-63
2023/06/19 01:50:00;;;;;;;0.10;0.10;;;;;;;20.07;69.96;98796.00;5072692;28;20125;-63
2023/06/19 01:52:27;;;;;;;0.00;0.00;;;;;;;20.06;70.21;98812.63;5079424;28;20044;-62
2023/06/19 01:54:55;;;;;;;0.00;0.00;;;;;;;20.03;70.01;98805.91;5072116;28;20040;-62
2023/06/19 01:57:25;;;;;;;0.00;0.00;;;;;;;20.03;70.48;98817.59;5082503;28;20044;-63
2023/06/19 01:59:53;;;;;;;0.00;0.00;;;;;;;20.06;70.63;98818.88;5074968;28;20566;-62
2023/06/19 02:02:20;;;;;;;0.00;0.00;;;;;;;19.98;70.87;98816.94;5078934;28;20068;-62
2023/06/19 02:04:50;;;;;;;0.00;0.00;;;;;;;19.90;71.42;98817.72;5081081;28;20040;-65
2023/06/19 02:07:18;;;;;;;0.00;0.00;;;;;;;19.85;71.16;98821.38;5080950;28;20036;-64
2023/06/19 02:09:48;;;;;;;0.00;0.00;;;;;;;19.85;71.72;98826.00;5069900;28;20147;-64
2023/06/19 02:12:16;;;;;;;0.00;0.00;;;;;;;19.71;72.19;98832.31;5084197;28;20393;-63
2023/06/19 02:14:45;;;;;;;0.00;0.00;;;;;;;19.57;73.07;98837.84;5080021;28;20059;-62
2023/06/19 02:17:13;;;;;;;0.08;0.08;;;;;;;19.48;73.59;98836.19;5080421;28;20056;-62
2023/06/19 02:19:40;;;;;;;0.00;0.00;;;;;;;19.43;74.06;98845.25;5081487;28;20059;-64
2023/06/19 02:22:08;;;;;;;0.00;0.00;;;;;;;19.43;74.36;98834.38;5081820;28;20083;-64
2023/06/19 02:24:36;;;;;;;0.00;0.00;;;;;;;19.46;74.13;98839.19;5082397;28;20036;-64
2023/06/19 02:27:06;;;;;;;0.00;0.00;;;;;;;19.48;73.83;98836.97;5081376;28;20463;-64
2023/06/19 02:29:34;;;;;;;0.00;0.00;;;;;;;19.46;73.79;98836.47;5080142;28;20040;-63
2023/06/19 02:32:03;;;;;;;0.10;0.05;;;;;;;19.45;74.10;98840.31;5074649;28;20131;-62
2023/06/19 02:34:30;;;;;;;0.00;0.00;;;;;;;19.32;75.03;98835.75;5085170;28;20135;-62
2023/06/19 02:36:57;;;;;;;0.00;0.00;;;;;;;19.24;75.26;98839.22;5074688;28;20048;-63
2023/06/19 02:39:25;;;;;;;0.00;0.00;;;;;;;19.14;76.02;98846.47;5075224;28;20076;-62
2023/06/19 02:41:52;;;;;;;0.00;0.00;;;;;;;19.12;76.73;98854.16;5078184;28;20384;-63
2023/06/19 02:44:20;;;;;;;0.00;0.00;;;;;;;19.12;77.00;98854.16;5074872;28;20095;-63
2023/06/19 02:46:48;;;;;;;0.00;0.00;;;;;;;18.97;77.68;98851.81;5090167;28;20044;-64
2023/06/19 02:49:18;;;;;;;0.00;0.00;;;;;;;19.00;78.01;98861.25;5081727;28;20136;-63
2023/06/19 02:51:45;;;;;;;0.00;0.00;;;;;;;18.91;78.51;98853.81;5080920;28;20044;-63
2023/06/19 02:54:13;;;;;;;0.00;0.00;;;;;;;18.91;79.00;98853.00;5068570;28;20055;-63
2023/06/19 02:56:40;;;;;;;0.08;0.08;;;;;;;18.84;79.43;98852.63;5087443;28;20044;-63
2023/06/19 02:59:08;;;;;;;0.00;0.00;;;;;;;18.91;79.71;98855.72;5072445;28;20037;-63
2023/06/19 03:01:35;;;;;;;0.00;0.00;;;;;;;18.88;79.87;98861.78;5077794;28;20107;-64
2023/06/19 03:04:03;;;;;;;0.15;0.00;;;;;;;18.90;79.75;98863.09;5097974;28;20101;-63
2023/06/19 03:06:33;;;;;;;0.00;0.00;;;;;;;18.92;79.98;98873.63;5075855;28;20399;-63
2023/06/19 03:09:00;;;;;;;;;;;;;;;18.90;80.47;98884.81;5080504;28;20446;-63
2023/06/19 03:11:28;;;;;;;0.00;0.00;;;;;;;18.90;80.77;98884.00;5080228;28;19927;-63
2023/06/19 03:13:55;;;;;;;0.00;0.00;;;;;;;18.89;80.72;98885.09;5073778;28;20059;-62
2023/06/19 03:16:23;;;;;;;0.00;0.00;;;;;;;18.93;80.79;98888.81;5084862;28;20056;-63
2023/06/19 03:18:51;;;;;;;0.00;0.00;;;;;;;18.86;81.54;98889.22;5068889;28;20135;-64
2023/06/19 03:21:21;;;;;;;0.00;0.00;;;;;;;18.85;81.35;98897.69;5073050;28;20048;-66
2023/06/19 03:23:52;;;;;;;0.00;0.00;;;;;;;18.82;82.23;98893.69;5078349;28;20063;-63
2023/06/19 03:26:22;;;;;;;0.00;0.00;;;;;;;18.87;82.31;98895.44;5078854;28;20048;-64
2023/06/19 03:28:50;;;;;;;0.00;0.00;;;;;;;18.86;82.45;98899.28;5074427;28;20437;-63
2023/06/19 03:31:17;;;;;;;0.00;0.00;;;;;;;18.84;82.69;98899.59;5085651;28;20663;-64
2023/06/19 03:33:44;;;;;;;0.00;0.00;;;;;;;18.87;83.06;98907.13;5077713;28;20058;-64
2023/06/19 03:36:12;;;;;;;0.17;0.03;;;;;;;18.90;82.88;98906.53;5079642;28;20048;-64
2023/06/19 03:38:53;;;;;;;0.00;0.00;;;;;;;18.94;82.55;98902.06;5069846;28;20064;-64
2023/06/19 03:41:23;;;;;;;0.00;0.00;;;;;;;18.95;82.50;98902.91;5075546;28;20250;-64
2023/06/19 03:43:51;;;;;;;0.00;0.00;;;;;;;18.84;83.57;98901.50;5079651;28;20482;-63
2023/06/19 03:46:19;;;;;;;0.00;0.00;;;;;;;18.87;83.69;98906.31;5073276;28;20407;-63
2023/06/19 03:48:47;;;;;;;0.00;0.00;;;;;;;18.88;84.01;98913.38;5072355;28;20119;-63
2023/06/19 03:51:15;;;;;;;0.00;0.00;;;;;;;18.90;83.76;98922.03;5075071;28;20131;-63
2023/06/19 03:53:43;;;;;;;0.00;0.00;;;;;;;18.94;84.00;98923.78;5073105;28;20486;-63
2023/06/19 03:56:12;;;;;;;0.00;0.00;;;;;;;18.95;83.71;98919.19;5081920;28;20505;-63
2023/06/19 03:58:39;;;;;;;0.00;0.00;;;;;;;19.02;83.80;98925.00;5069852;28;20058;-63
2023/06/19 04:01:07;;;;;;;0.10;0.10;;;;;;;19.06;83.28;98930.63;5081087;28;21292;-64
2023/06/19 04:03:34;;;;;;;0.00;0.00;;;;;;;19.12;83.36;98932.94;5078581;28;20047;-64
2023/06/19 04:06:03;;;;;;;0.00;0.00;;;;;;;19.20;83.53;98936.84;5072882;28;20048;-64
2023/06/19 04:08:30;;;;;;;0.00;0.00;;;;;;;19.22;83.37;98940.06;5076351;28;20036;-62
2023/06/19 04:10:58;;;;;;;0.00;0.00;;;;;;;19.49;82.08;98939.13;5076346;28;20049;-62
2023/06/19 04:13:29;;;;;;;;;;;;;;;19.73;81.17;98952.44;5072425;28;20094;-62
2023/06/19 04:15:56;;;;;;;0.00;0.00;;;;;;;19.83;80.29;98954.91;5075440;28;19920;-63
2023/06/19 04:18:24;;;;;;;0.00;0.00;;;;;;;20.05;79.83;98961.44;5075212;28;20036;-63
2023/06/19 04:20:51;;;;;;;0.00;0.00;;;;;;;20.14;79.86;98958.75;5095440;28;20045;-63
2023/06/19 04:23:19;;;;;;;0.00;0.00;;;;;;;20.38;78.94;98966.56;5074737;28;20186;-63
2023/06/19 04:25:46;;;;;;;0.00;0.00;;;;;;;20.07;80.17;98972.84;5079548;28;20052;-63
2023/06/19 04:28:14;;;;;;;0.00;0.00;;;;;;;19.61;82.58;98973.91;5073155;28;20050;-62
2023/06/19 04:30:42;;;;;;;0.00;0.00;;;;;;;19.57;84.18;98970.22;5075750;28;20048;-63
2023/06/19 04:33:10;;;;;;;0.00;0.00;;;;;;;19.44;84.64;98962.91;5082575;28;20036;-63
2023/06/19 04:35:39;;;;;;;0.00;0.00;;;;;;;19.56;83.81;98972.13;5078239;28;20043;-65
2023/06/19 04:38:08;;;;;;;0.00;0.00;;;;;;;19.53;84.34;98970.03;5073597;28;20083;-63
2023/06/19 04:40:36;;;;;;;0.00;0.00;;;;;;;19.62;83.98;98975.53;5061463;28;20064;-63
2023/06/19 04:43:05;;;;;;;0.00;0.00;;;;;;;19.67;84.11;98969.16;5078651;28;20048;-63
2023/06/19 04:45:33;;;;;;;0.00;0.00;;;;;;;19.62;84.72;98975.53;5077240;28;20044;-63
2023/06/19 04:48:03;;;;;;;0.00;0.00;;;;;;;19.79;83.75;98972.16;5073722;28;20044;-62
2023/06/19 04:50:30;;;;;;;;;;;;;;;19.71;84.91;98972.91;5075020;28;20413;-63
2023/06/19 04:52:57;;;;;;;0.20;0.00;;;;;;;19.76;85.09;98970.06;5076840;28;19927;-64
2023/06/19 04:55:26;;;;;;;0.00;0.00;;;;;;;19.89;84.28;98973.81;5076991;28;20086;-63
2023/06/19 04:57:53;;;;;;;0.00;0.00;;;;;;;19.86;85.09;98969.81;5078745;28;20133;-63
2023/06/19 05:00:23;;;;;;;0.00;0.00;;;;;;;19.86;85.42;98969.81;5072452;28;20487;-63
2023/06/19 05:02:50;;;;;;;0.10;0.10;;;;;;;20.38;83.17;98967.38;5078251;28;20110;-63
2023/06/19 05:05:19;;;;;;;0.25;0.10;;;;;;;20.84;80.75;98976.19;5079575;28;20235;-63
2023/06/19 05:07:46;;;;;;;0.10;0.10;;;;;;;21.73;76.62;98974.88;5079023;28;20127;-63
2023/06/19 05:10:14;;;;;;;0.10;0.10;;;;;;;22.27;73.96;98965.50;5078794;28;20395;-64
2023/06/19 05:12:42;;;;;;;0.00;0.00;;;;;;;22.43;72.89;98969.28;5078503;28;20123;-63
2023/06/19 05:15:10;;;;;;;0.00;0.00;;;;;;;22.43;73.54;98973.94;5076620;28;20140;-64
2023/06/19 05:17:38;;;;;;;0.00;0.00;;;;;;;22.37;73.55;98976.84;5081022;28;20044;-64
2023/06/19 05:20:08;;;;;;;0.00;0.00;;;;;;;22.46;73.22;98976.00;5067714;28;20078;-64
2023/06/19 05:22:37;;;;;;;0.03;0.03;;;;;;;22.07;74.78;98977.88;5080348;28;20040;-64
2023/06/19 05:25:05;;;;;;;0.00;0.00;;;;;;;22.60;72.36;98991.06;5069897;28;20062;-64
2023/06/19 05:27:32;;;;;;;0.03;0.03;;;;;;;24.25;66.62;98989.03;5072820;28;20411;-62
2023/06/19 05:30:01;;;;;;;0.00;0.00;;;;;;;24.72;64.06;98987.88;5079917;28;20037;-63
2023/06/19 05:32:29;;;;;;;0.00;0.00;;;;;;;24.46;64.68;98988.19;5079217;28;20044;-63
2023/06/19 05:34:57;;;;;;;0.00;0.00;;;;;;;24.06;66.51;98994.22;5081930;28;20160;-63
2023/06/19 05:37:24;;;;;;;0.00;0.00;;;;;;;24.77;64.25;99003.28;5078438;28;20052;-63
2023/06/19 05:39:53;;;;;;;0.00;0.00;;;;;;;24.78;64.94;99004.88;5084362;28;20089;-63
2023/06/19 05:42:21;;;;;;;0.00;0.00;;;;;;;24.37;65.42;99006.66;5076296;28;20098;-63
2023/06/19 05:44:48;;;;;;;0.00;0.00;;;;;;;25.36;61.57;99011.00;5082093;28;20044;-63
2023/06/19 05:47:20;;;;;;;0.00;0.00;;;;;;;24.87;63.69;99002.84;5076421;28;20052;-63
2023/06/19 05:49:48;;;;;;;0.00;0.00;;;;;;;25.79;60.60;99013.06;5073092;28;20101;-64
2023/06/19 05:52:15;;;;;;;0.00;0.00;;;;;;;25.72;60.29;99023.06;5083987;28;20505;-64
2023/06/19 05:54:43;;;;;;;0.00;0.00;;;;;;;25.57;61.89;99016.34;5082216;28;20125;-64
2023/06/19 05:57:12;;;;;;;0.00;0.00;;;;;;;26.26;58.81;99017.13;5073085;28;20052;-63
2023/06/19 05:59:39;;;;;;;;;;;;;;;26.46;57.58;99018.03;5079117;28;20138;-61
2023/06/19 06:02:09;;;;;;;0.00;0.00;;;;;;;25.82;59.63;99017.06;5079258;28;19920;-64
2023/06/19 06:04:37;;;;;;;0.00;0.00;;;;;;;26.57;57.76;99023.81;5083988;28;20036;-63
2023/06/19 06:07:05;;;;;;;0.00;0.00;;;;;;;27.05;55.03;99028.13;5074283;28;20048;-65
2023/06/19 06:09:33;;;;;;;0.00;0.00;;;;;;;27.09;55.00;99026.25;5080698;28;20067;-64
2023/06/19 06:12:01;;;;;;;0.00;0.00;;;;;;;24.75;62.60;99023.59;5078476;28;20052;-63
2023/06/19 06:14:29;;;;;;;0.00;0.00;;;;;;;24.77;63.50;99023.28;5082094;28;20147;-63
2023/06/19 06:16:57;;;;;;;0.00;0.00;;;;;;;25.00;61.76;99026.34;5077291;28;20044;-64
2023/06/19 06:19:24;;;;;;;0.00;0.00;;;;;;;24.77;62.57;99027.97;5080478;28;20036;-63
2023/06/19 06:21:51;;;;;;;0.00;0.00;;;;;;;25.75;58.92;99025.09;5080054;28;20040;-64
2023/06/19 06:24:19;;;;;;;0.00;0.00;;;;;;;26.74;55.03;99014.41;5079125;28;20472;-64
2023/06/19 06:26:46;;;;;;;0.00;0.00;;;;;;;25.37;58.82;99029.09;5086581;28;20439;-63
2023/06/19 06:29:14;;;;;;;0.00;0.00;;;;;;;23.89;63.92;99023.38;5073116;28;20127;-63
2023/06/19 06:31:47;;;;;;;0.00;0.00;;;;;;;22.98;66.21;99012.09;5084426;28;20116;-63
2023/06/19 06:34:14;;;;;;;0.00;0.00;;;;;;;23.61;64.11;99005.88;5080119;28;20179;-63
2023/06/19 06:36:42;;;;;;;0.00;0.00;;;;;;;25.90;55.77;99013.38;5076807;28;20505;-63
2023/06/19 06:39:09;;;;;;;0.13;0.10;;;;;;;27.13;52.69;99022.78;5075757;28;20179;-63
2023/06/19 06:41:36;;;;;;;0.00;0.00;;;;;;;27.01;52.19;99026.44;5077108;28;20040;-63
2023/06/19 06:44:06;;;;;;;0.00;0.00;;;;;;;27.88;49.93;99032.69;5074403;28;20127;-63
2023/06/19 06:46:33;;;;;;;0.00;0.00;;;;;;;29.15;46.57;99031.81;5084275;28;20054;-64
2023/06/19 06:49:02;;;;;;;0.00;0.00;;;;;;;28.27;47.86;99038.19;5082454;28;20263;-63
2023/06/19 06:51:30;;;;;;;0.00;0.00;;;;;;;27.01;51.41;99042.94;5085622;28;20051;-63
2023/06/19 06:53:57;;;;;;;0.00;0.00;;;;;;;26.16;52.77;99032.16;5082544;28;20044;-63
2023/06/19 06:56:25;;;;;;;0.00;0.00;;;;;;;27.77;50.11;99037.19;5073604;28;20505;-63
2023/06/19 06:58:52;;;;;;;0.00;0.00;;;;;;;27.87;48.58;99031.91;5082980;28;20600;-63
2023/06/19 07:01:19;;;;;;;0.00;0.00;;;;;;;28.62;47.06;99042.75;5076325;28;20483;-63
2023/06/19 07:03:47;;;;;;;0.00;0.00;;;;;;;27.34;49.46;99045.31;5084147;28;20128;-63
2023/06/19 07:06:15;;;;;;;0.00;0.00;;;;;;;28.02;47.85;99052.28;5085734;28;20078;-63
2023/06/19 07:08:47;;;;;;;0.00;0.00;;;;;;;28.13;47.68;99061.56;5074152;28;20102;-62
2023/06/19 07:11:14;;;;;;;0.00;0.00;;;;;;;26.30;52.08;99056.44;5074587;28;20090;-62
2023/06/19 07:13:42;;;;;;;0.00;0.00;;;;;;;26.71;51.87;99062.66;5074681;28;20056;-62
2023/06/19 07:16:09;;;;;;;0.03;0.03;;;;;;;27.57;48.86;99061.16;5084365;28;20163;-62
2023/06/19 07:18:38;;;;;;;0.00;0.00;;;;;;;28.69;46.85;99062.19;5075254;28;20301;-62
2023/06/19 07:21:06;;;;;;;0.00;0.00;;;;;;;29.33;44.86;99059.66;5082958;28;20177;-62
2023/06/19 07:23:34;;;;;;;0.00;0.00;;;;;;;29.88;43.86;99057.28;5073730;28;20051;-62
2023/06/19 07:26:02;;;;;;;0.00;0.00;;;;;;;30.64;42.23;99067.97;5081074;28;20485;-62
2023/06/19 07:28:29;;;;;;;0.00;0.00;;;;;;;30.51;42.29;99070.22;5085295;28;20473;-62
2023/06/19 07:30:57;;;;;;;0.00;0.00;;;;;;;31.19;40.92;99066.47;5072846;28;20122;-62
2023/06/19 07:33:24;;;;;;;0.00;0.00;;;;;;;32.20;40.04;99071.34;5078649;28;20098;-62
2023/06/19 07:35:52;;;;;;;0.00;0.00;;;;;;;32.49;38.77;99068.69;5080407;28;20043;-63
2023/06/19 07:38:19;;;;;;;0.00;0.00;;;;;;;31.79;39.95;99079.91;5076525;28;20159;-62
2023/06/19 07:40:48;;;;;;;0.00;0.00;;;;;;;31.54;39.72;99080.56;5079989;28;20084;-63
2023/06/19 07:43:18;;;;;;;0.00;0.00;;;;;;;31.80;39.54;99076.75;5085014;28;20043;-63
2023/06/19 07:45:48;;;;;;;0.00;0.00;;;;;;;31.29;40.47;99074.06;5085998;28;20130;-63
2023/06/19 07:48:16;;;;;;;0.00;0.00;;;;;;;32.70;37.72;99077.03;5076950;28;20047;-63
2023/06/19 07:50:45;;;;;;;;;;;;;;;32.57;38.08;99079.38;5077527;28;20040;-63
2023/06/19 07:53:15;;;;;;;0.00;0.00;;;;;;;31.73;39.12;99081.47;5075650;28;19959;-63
2023/06/19 07:55:51;;;;;;;0.00;0.00;;;;;;;31.84;38.52;99087.03;5082879;28;20028;-63
2023/06/19 07:58:19;;;;;;;0.00;0.00;;;;;;;32.09;38.07;99081.63;5075090;28;20138;-63
2023/06/19 08:00:47;;;;;;;0.00;0.00;;;;;;;32.72;37.39;99080.19;5078594;28;20040;-62
2023/06/19 08:03:15;;;;;;;0.00;0.00;;;;;;;33.22;36.14;99074.66;5082508;28;20124;-62
2023/06/19 08:05:42;;;;;;;0.00;0.00;;;;;;;32.85;36.61;99089.72;5071364;28;20044;-63
2023/06/19 08:08:10;;;;;;;0.00;0.00;;;;;;;32.18;36.98;99101.47;5068541;28;20067;-62
2023/06/19 08:10:38;;;;;;;0.00;0.00;;;;;;;31.13;38.93;99105.59;5075811;28;20752;-62
2023/06/19 08:13:06;;;;;;;0.00;0.00;;;;;;;32.96;36.47;99095.28;5082299;28;20350;-63
2023/06/19 08:15:34;;;;;;;0.00;0.00;;;;;;;30.84;39.19;99092.69;5085404;28;20377;-62
2023/06/19 08:18:02;;;;;;;0.00;0.00;;;;;;;31.94;37.94;99081.56;5080129;28;20072;-62
2023/06/19 08:20:29;;;;;;;0.00;0.00;;;;;;;32.83;36.25;99083.00;5081311;28;20059;-62
2023/06/19 08:22:57;;;;;;;0.00;0.00;;;;;;;32.87;36.81;99090.13;5079218;28;20487;-62
2023/06/19 08:25:24;;;;;;;0.00;0.00;;;;;;;30.20;40.79;99081.72;5072685;28;20037;-63
2023/06/19 08:27:52;;;;;;;0.00;0.00;;;;;;;29.07;43.06;99083.31;5081438;28;20040;-63
2023/06/19 08:30:21;;;;;;;0.00;0.00;;;;;;;28.74;43.76;99086.69;5071021;28;20044;-63
2023/06/19 08:32:49;;;;;;;0.00;0.00;;;;;;;30.21;41.37;99084.09;5081437;28;20115;-63
2023/06/19 08:35:20;;;;;;;0.00;0.00;;;;;;;29.92;41.66;99094.03;5085114;28;20048;-62
2023/06/19 08:37:47;;;;;;;0.00;0.00;;;;;;;30.97;39.28;99091.22;5080727;28;20070;-62
2023/06/19 08:40:18;;;;;;;0.00;0.00;;;;;;;31.78;38.73;99092.16;5075982;28;20132;-62
2023/06/19 08:42:45;;;;;;;0.00;0.00;;;;;;;33.32;36.43;99091.69;5082618;28;20190;-63
2023/06/19 08:45:13;;;;;;;0.00;0.00;;;;;;;31.10;38.80;99092.53;5079687;28;20199;-62
2023/06/19 08:47:43;;;;;;;0.00;0.00;;;;;;;32.06;38.43;99091.53;5076174;28;20399;-62
2023/06/19 08:50:11;;;;;;;0.00;0.00;;;;;;;32.92;36.38;99088.91;5077300;28;20070;-62
2023/06/19 08:52:38;;;;;;;0.00;0.00;;;;;;;32.62;36.83;99092.06;5079665;28;20042;-62
2023/06/19 08:55:07;;;;;;;0.00;0.00;;;;;;;31.79;37.62;99089.00;5071583;28;20059;-62
2023/06/19 08:57:36;;;;;;;0.00;0.00;;;;;;;30.45;39.69;99084.78;5073603;28;20126;-62
2023/06/19 09:00:05;;;;;;;0.00;0.00;;;;;;;29.60;40.75;99090.81;5076640;28;20054;-62
2023/06/19 09:02:40;;;;;;;0.00;0.00;;;;;;;29.42;41.97;99091.34;5077413;28;20398;-62
2023/06/19 09:05:17;;;;;;;0.00;0.00;;;;;;;29.52;41.82;99089.13;5078106;28;20043;-63
2023/06/19 09:07:44;;;;;;;0.00;0.00;;;;;;;31.10;39.41;99097.22;5086693;28;20040;-62
2023/06/19 09:10:16;;;;;;;0.00;0.00;;;;;;;31.47;37.84;99094.34;5082026;28;20139;-62
2023/06/19 09:12:57;;;;;;;0.08;0.00;;;;;;;30.90;39.55;99096.69;5077212;28;20036;-62
2023/06/19 09:15:27;;;;;;;0.00;0.00;;;;;;;31.48;37.68;99082.13;5079027;28;20130;-62
2023/06/19 09:18:04;;;;;;;0.00;0.00;;;;;;;31.90;36.97;99091.84;5082048;28;20405;-62
2023/06/19 09:20:33;;;;;;;0.00;0.00;;;;;;;31.21;38.87;99094.56;5084321;28;20406;-62
2023/06/19 09:23:00;;;;;;;0.00;0.00;;;;;;;30.79;39.13;99096.56;5081611;28;20480;-62
2023/06/19 09:25:28;;;;;;;0.00;0.00;;;;;;;31.24;38.28;99089.03;5075713;28;20040;-62
2023/06/19 09:27:55;;;;;;;0.00;0.00;;;;;;;31.42;38.66;99089.19;5088740;28;20178;-62
2023/06/19 09:30:23;;;;;;;0.00;0.00;;;;;;;32.40;36.68;99085.66;5079420;28;20105;-64
2023/06/19 09:32:50;;;;;;;0.00;0.00;;;;;;;33.01;35.75;99091.31;5077595;28;20059;-62
2023/06/19 09:35:18;;;;;;;0.00;0.00;;;;;;;32.71;36.63;99084.16;5076639;28;20048;-62
2023/06/19 09:37:47;;;;;;;0.00;0.00;;;;;;;31.49;37.69;99093.97;5080926;28;20048;-62
2023/06/19 09:40:15;;;;;;;0.00;0.00;;;;;;;32.94;35.93;99091.31;5087950;28;20672;-62
2023/06/19 09:42:43;;;;;;;0.00;0.00;;;;;;;32.68;37.28;99090.50;5077497;28;20542;-62
2023/06/19 09:45:24;;;;;;;0.00;0.00;;;;;;;31.96;37.81;99093.06;5072305;28;20064;-62
2023/06/19 09:47:53;;;;;;;0.00;0.00;;;;;;;32.82;35.94;99087.72;5083443;28;20046;-63
2023/06/19 09:50:20;;;;;;;0.00;0.00;;;;;;;30.63;38.45;99094.06;5080542;28;20052;-64
2023/06/19 09:52:52;;;;;;;0.00;0.00;;;;;;;31.67;38.05;99099.63;5078136;28;20135;-64
2023/06/19 09:55:19;;;;;;;0.00;0.00;;;;;;;32.67;36.82;99094.47;5077288;28;20055;-62
2023/06/19 09:57:48;;;;;;;0.00;0.00;;;;;;;31.59;38.44;99099.56;5077278;28;20051;-62
2023/06/19 10:00:15;;;;;;;;;;;;;;;31.69;36.86;99097.25;5082017;28;20147;-62
2023/06/19 10:02:44;;;;;;;0.00;0.00;;;;;;;31.62;36.58;99091.69;5087200;28;19924;-62
2023/06/19 10:05:13;;;;;;;0.00;0.00;;;;;;;31.42;37.26;99089.19;5084287;28;20024;-62
2023/06/19 10:07:43;;;;;;;0.00;0.00;;;;;;;31.66;37.10;99106.34;5084827;28;20044;-62
2023/06/19 10:10:13;;;;;;;0.00;0.00;;;;;;;31.31;37.42;99099.38;5076934;28;20066;-64
2023/06/19 10:12:41;;;;;;;0.00;0.00;;;;;;;31.65;37.58;99100.00;5078788;28;20052;-65
2023/06/19 10:15:13;;;;;;;0.00;0.00;;;;;;;30.23;38.58;99087.28;5079340;28;20044;-64
2023/06/19 10:17:45;;;;;;;0.00;0.00;;;;;;;31.27;37.91;99090.25;5081188;28;20406;-64
2023/06/19 10:20:27;;;;;;;0.00;0.00;;;;;;;31.71;37.90;99086.59;5073310;28;20494;-64
2023/06/19 10:22:58;;;;;;;0.00;0.00;;;;;;;31.69;36.85;99086.19;5082085;28;20047;-62
2023/06/19 10:25:29;;;;;;;0.00;0.00;;;;;;;31.81;37.65;99094.16;5076620;28;20143;-62
2023/06/19 10:27:56;;;;;;;0.00;0.00;;;;;;;30.68;38.85;99085.41;5081920;28;20457;-62
2023/06/19 10:30:24;;;;;;;0.00;0.00;;;;;;;32.31;36.41;99083.28;5072069;28;20684;-65
2023/06/19 10:32:51;;;;;;;0.00;0.00;;;;;;;32.22;36.13;99085.63;5073691;28;20040;-62
2023/06/19 10:35:21;;;;;;;0.00;0.00;;;;;;;32.19;36.20;99089.19;5081436;28;20518;-62
2023/06/19 10:37:48;;;;;;;0.00;0.00;;;;;;;31.38;37.60;99080.06;5080428;28;20452;-62
2023/06/19 10:40:16;;;;;;;0.00;0.00;;;;;;;31.37;36.90;99082.00;5081190;28;20990;-64
2023/06/19 10:42:45;;;;;;;0.00;0.00;;;;;;;31.61;36.87;99073.47;5087495;28;20070;-64
2023/06/19 10:45:13;;;;;;;0.00;0.00;;;;;;;32.26;35.83;99064.25;5075714;28;20052;-64
2023/06/19 10:47:40;;;;;;;0.00;0.00;;;;;;;32.18;36.45;99073.75;5077526;28;20048;-64
2023/06/19 10:50:12;;;;;;;0.00;0.00;;;;;;;32.11;36.39;99070.94;5078228;28;20044;-64
2023/06/19 10:52:43;;;;;;;0.00;0.00;;;;;;;31.90;35.84;99074.38;5080797;28;20103;-64
2023/06/19 10:55:12;;;;;;;0.00;0.00;;;;;;;30.85;37.20;99072.94;5081291;28;20046;-62
2023/06/19 10:57:39;;;;;;;0.00;0.00;;;;;;;31.03;38.17;99066.72;5084269;28;20043;-64
2023/06/19 11:00:13;;;;;;;0.00;0.00;;;;;;;31.54;35.24;99063.94;5070164;28;20450;-62
2023/06/19 11:02:43;;;;;;;0.00;0.00;;;;;;;31.09;36.79;99056.91;5084739;28;20054;-64
2023/06/19 11:05:11;;;;;;;0.00;0.00;;;;;;;31.36;36.30;99068.56;5083505;28;20047;-64
2023/06/19 11:07:39;;;;;;;0.00;0.00;;;;;;;31.61;35.84;99062.41;5079153;28;20134;-64
2023/06/19 11:10:08;;;;;;;0.10;0.00;;;;;;;31.10;36.06;99056.53;5075084;28;20399;-64
2023/06/19 11:12:35;;;;;;;0.00;0.00;;;;;;;31.69;36.55;99058.47;5084935;28;20494;-64
2023/06/19 11:15:06;;;;;;;0.00;0.00;;;;;;;32.27;35.03;99060.28;5086880;28;20048;-63
2023/06/19 11:17:35;;;;;;;0.00;0.00;;;;;;;32.49;35.49;99054.81;5082044;28;20040;-64
2023/06/19 11:20:05;;;;;;;0.00;0.00;;;;;;;33.12;34.13;99053.25;5077095;28;20394;-63
2023/06/19 11:22:40;;;;;;;0.00;0.00;;;;;;;32.80;35.12;99053.25;5078711;28;20472;-64
2023/06/19 11:25:08;;;;;;;0.00;0.00;;;;;;;32.71;34.83;99059.19;5082643;28;20047;-62
2023/06/19 11:27:37;;;;;;;0.10;0.00;;;;;;;32.60;34.52;99056.41;5069986;28;20082;-62
2023/06/19 11:30:07;;;;;;;0.00;0.00;;;;;;;31.63;36.10;99048.94;5078243;28;20080;-62
2023/06/19 11:32:40;;;;;;;0.00;0.00;;;;;;;30.70;37.33;99054.59;5076975;28;20051;-62
2023/06/19 11:35:10;;;;;;;0.00;0.00;;;;;;;31.54;34.49;99054.84;5075342;28;20131;-63
2023/06/19 11:37:40;;;;;;;0.00;0.00;;;;;;;29.65;38.25;99051.81;5081522;28;20123;-62
2023/06/19 11:40:15;;;;;;;0.00;0.00;;;;;;;30.64;37.03;99053.38;5073075;28;20051;-62